Flight Track Log - Related Links

Times and Time Zones

All times are in EDT time to prevent confusion due to time zone crossing. See the FLG3432 flight status page for this flight to view local times or setup timezone preferences in your user account.

Time Position Orientation Groundspeed Altitude Reporting Facility
EDT Latitude Longitude Course Direction KTS MPH feet Rate Location/Type
Sat 09:02:37 PM 40.8178 -111.9811 163° South 180 207 5,000  Level Salt Lake Center
Sat 09:03:32 PM 40.8683 -111.9867 355° North 201 231 6,300 1,592 Climbing Salt Lake Center
Sat 09:04:15 PM 40.9081 -111.9908 355° North 218 251 7,600 1,486 Climbing Salt Lake Center
Sat 09:05:00 PM 41.1194 -111.9375 48° Northeast  Level FlightAware Approximate
Sat 09:05:17 PM 40.9744 -111.9992 355° North 238 274 8,900  Level Salt Lake Center
Sat 09:06:00 PM 41.1218 -111.7870 108° East  Level FlightAware Approximate
Sat 09:06:18 PM 41.0514 -112.0011 359° North 277 319 10,800  Level Salt Lake Center
Sat 09:07:00 PM 41.0178 -111.7229 163° South  Level FlightAware Approximate
Sat 09:07:19 PM 41.0678 -111.9036 77° East 306 352 12,400  Level Salt Lake Center
Sat 09:08:21 PM 40.9786 -111.8200 145° Southeast 358 412 13,300 1,317 Climbing Salt Lake Center
Sat 09:09:22 PM 40.8908 -111.7439 147° Southeast 376 433 15,100 1,721 Climbing Salt Lake Center
Sat 09:10:23 PM 40.8011 -111.6650 146° Southeast 386 444 16,800 1,672 Climbing Salt Lake Center
Sat 09:11:24 PM 40.7361 -111.5517 127° Southeast 408 470 18,500 1,610 Climbing Salt Lake Center
Sat 09:12:26 PM 40.6953 -111.4128 111° Southeast 409 471 20,100 1,463 Climbing Salt Lake Center
Sat 09:13:27 PM 40.6536 -111.2697 111° Southeast 419 482 21,500 1,426 Climbing Salt Lake Center
Sat 09:14:28 PM 40.6108 -111.1225 111° Southeast 428 493 23,000 1,268 Climbing Salt Lake Center
Sat 09:15:30 PM 40.5664 -110.9719 111° Southeast 441 507 24,100 976 Climbing Salt Lake Center
Sat 09:16:31 PM 40.5119 -110.7878 111° Southeast 451 519 25,000 443 Climbing Salt Lake Center
Sat 09:17:32 PM 40.4592 -110.6478 116° Southeast 432 497 25,000  Level Salt Lake Center
Sat 09:18:34 PM 40.4069 -110.5197 118° Southeast 434 499 25,000  Level Salt Lake Center
Sat 09:19:35 PM 40.3419 -110.3575 118° Southeast 448 516 25,000  Level Salt Lake Center
Sat 09:20:36 PM 40.2686 -110.2325 128° Southeast 454 522 25,000  Level Salt Lake Center
Sat 09:21:38 PM 40.1414 -110.1481 153° Southeast 461 531 25,000  Level Salt Lake Center
Sat 09:22:39 PM 40.0350 -110.0731 152° Southeast 455 524 25,000  Level Salt Lake Center
Sat 09:23:40 PM 39.9275 -109.9978 152° Southeast 457 526 25,000  Level Salt Lake Center
Sat 09:24:42 PM 39.8042 -109.9128 152° Southeast 453 521 25,000  Level Salt Lake Center
Sat 09:25:43 PM 39.6986 -109.8383 152° Southeast 452 520 25,000  Level Salt Lake Center
Sat 09:26:44 PM 39.5756 -109.7522 152° Southeast 451 519 25,000  Level Salt Lake Center
Sat 09:27:45 PM 39.4694 -109.6797 152° Southeast 451 519 25,000  Level Salt Lake Center
Sat 09:28:47 PM 39.3633 -109.6067 152° Southeast 452 520 25,000  Level Salt Lake Center
Sat 09:29:48 PM 39.2383 -109.5217 152° Southeast 455 524 25,000  Level Salt Lake Center
Sat 09:30:49 PM 39.1322 -109.4472 151° Southeast 455 524 25,000  Level Salt Lake Center
Sat 09:31:51 PM 39.0072 -109.3628 152° Southeast 458 527 25,000  Level Salt Lake Center
Sat 09:32:52 PM 38.8997 -109.2900 152° Southeast 457 526 25,000  Level Salt Lake Center
Sat 09:33:53 PM 38.7731 -109.2033 152° Southeast 460 529 25,000  Level Salt Lake Center
Sat 09:34:55 PM 38.6656 -109.1308 152° Southeast 460 529 25,000  Level Salt Lake Center
Sat 09:35:56 PM 38.5575 -109.0581 152° Southeast 459 528 25,000  Level Salt Lake Center
Sat 09:36:28 PM 38.5214 -109.0333 152° Southeast 456 525 25,000  Level Denver Center
Sat 09:37:30 PM 38.3986 -108.9017 140° Southeast 462 532 25,000  Level Denver Center
Sat 09:38:32 PM 38.3072 -108.7675 131° Southeast 451 519 25,000  Level Denver Center
Sat 09:39:33 PM 38.2450 -108.6339 121° Southeast 456 525 25,000  Level Denver Center
Sat 09:40:35 PM 38.1875 -108.4978 118° Southeast 455 524 25,000  Level Denver Center
Sat 09:41:37 PM 38.1142 -108.3425 121° Southeast 458 527 25,000  Level Denver Center
Sat 09:42:38 PM 38.0111 -108.2333 140° Southeast 458 527 25,000  Level Denver Center
Sat 09:43:40 PM 37.9031 -108.1608 152° Southeast 457 526 25,000  Level Denver Center
Sat 09:44:41 PM 37.7947 -108.0917 153° Southeast 456 525 25,000  Level Denver Center
Sat 09:45:43 PM 37.6808 -108.0378 159° South 456 525 25,000  Level Denver Center
Sat 09:46:45 PM 37.5489 -107.9744 159° South 455 524 25,000  Level Denver Center
Sat 09:47:46 PM 37.4164 -107.9106 159° South 454 522 25,000  Level Denver Center
Sat 09:48:48 PM 37.3042 -107.8581 160° South 451 519 25,000  Level Denver Center
Sat 09:49:49 PM 37.1919 -107.8047 159° South 450 518 25,000  Level Denver Center
Sat 09:50:51 PM 37.0617 -107.7428 159° South 447 514 25,000  Level Denver Center
Sat 09:52:04 PM 36.9506 -107.6897 159° South 445 512 25,000  Level Denver Center
Sat 09:53:06 PM 36.8022 -107.6200 159° South 446 513 25,000  Level Denver Center
Sat 09:54:07 PM 36.6911 -107.5697 160° South 443 510 25,000  Level Denver Center
Sat 09:55:09 PM 36.5631 -107.5092 159° South 441 507 25,000  Level Denver Center
Sat 09:56:10 PM 36.4525 -107.4583 160° South 440 506 25,000  Level Denver Center
Sat 09:57:12 PM 36.3419 -107.4072 160° South 441 507 25,000  Level Denver Center
Sat 09:58:13 PM 36.2133 -107.3478 160° South 440 506 25,000  Level Denver Center
Sat 09:59:14 PM 36.0919 -107.2922 160° South 444 511 25,000  Level Denver Center
Sat 10:00:16 PM 35.9761 -107.2403 160° South 443 510 25,000  Level Denver Center
Sat 10:01:17 PM 35.8608 -107.1861 159° South 443 510 25,000  Level Denver Center
Sat 10:02:18 PM 35.7675 -107.1436 160° South 445 512 25,000  Level Denver Center
Sat 10:03:28 PM 35.6850 -106.9583 119° Southeast 444 511 25,000  Level Albuquerque Center
Sat 10:04:29 PM 35.6472 -106.8208 109° East 443 510 25,000  Level Albuquerque Center
Sat 10:05:30 PM 35.6078 -106.6714 108° East 446 513 25,000  Level Albuquerque Center
Sat 10:06:31 PM 35.5686 -106.5267 108° East 445 512 25,000  Level Albuquerque Center
Sat 10:07:32 PM 35.5297 -106.3822 108° East 444 511 25,000  Level Albuquerque Center
Sat 10:08:33 PM 35.4900 -106.2372 109° East 446 513 25,000  Level Albuquerque Center
Sat 10:09:34 PM 35.4503 -106.0925 109° East 446 513 25,000 -49 Level Albuquerque Center
Sat 10:10:35 PM 35.4103 -105.9494 109° East 444 511 24,900  Descending Albuquerque Center
Sat 10:11:37 PM 35.3711 -105.8125 109° East 442 509 25,000 49 Climbing Albuquerque Center
Sat 10:12:38 PM 35.3242 -105.6433 109° East 443 510 25,000  Level Albuquerque Center
Sat 10:13:39 PM 35.2781 -105.4997 111° Southeast 451 519 25,000  Level Albuquerque Center
Sat 10:14:40 PM 35.2411 -105.3556 107° East 443 510 25,000  Level Albuquerque Center
Sat 10:15:41 PM 35.1983 -105.2117 110° East 446 513 25,000  Level Albuquerque Center
Sat 10:16:42 PM 35.1581 -105.0672 109° East 445 512 25,000  Level Albuquerque Center
Sat 10:17:43 PM 35.1175 -104.9278 110° East 437 503 25,000  Level Albuquerque Center
Sat 10:18:44 PM 35.0783 -104.7914 109° East 427 491 25,000  Level Albuquerque Center
Sat 10:19:45 PM 35.0392 -104.6536 109° East 428 493 25,000  Level Albuquerque Center
Sat 10:20:46 PM 34.9992 -104.5203 110° East 419 482 25,000  Level Albuquerque Center
Sat 10:21:47 PM 34.9683 -104.3775 105° East 432 497 25,000  Level Albuquerque Center
Sat 10:22:48 PM 34.9389 -104.2339 104° East 437 503 25,000  Level Albuquerque Center
Sat 10:23:49 PM 34.9089 -104.0900 104° East 439 505 25,000  Level Albuquerque Center
Sat 10:24:50 PM 34.8856 -103.9450 101° East 436 502 25,000  Level Albuquerque Center
Sat 10:25:51 PM 34.8583 -103.7983 103° East 441 507 25,000  Level Albuquerque Center
Sat 10:26:52 PM 34.8269 -103.6267 103° East 444 511 25,000  Level Albuquerque Center
Sat 10:27:53 PM 34.7947 -103.4797 105° East 446 513 25,000  Level Albuquerque Center
Sat 10:28:54 PM 34.7608 -103.3322 106° East 449 517 25,000  Level Albuquerque Center
Sat 10:29:55 PM 34.7281 -103.1875 105° East 443 510 25,000  Level Albuquerque Center
Sat 10:30:57 PM 34.7231 -103.0525 93° East 411 473 25,000  Level Albuquerque Center
Sat 10:31:58 PM 34.7511 -102.9189 76° East 406 467 25,000  Level Albuquerque Center
Sat 10:32:59 PM 34.7828 -102.7892 73° East 400 460 25,000  Level Albuquerque Center
Sat 10:34:00 PM 34.7922 -102.6575 85° East 398 458 25,000  Level Albuquerque Center
Sat 10:35:01 PM 34.7564 -102.5403 110° East 407 468 25,000  Level Albuquerque Center
Sat 10:36:02 PM 34.7147 -102.4128 112° Southeast 408 470 25,000  Level Albuquerque Center
Sat 10:37:03 PM 34.6556 -102.2656 116° Southeast 407 468 25,000  Level Albuquerque Center
Sat 10:38:04 PM 34.6025 -102.1419 118° Southeast 413 475 25,000  Level Albuquerque Center
Sat 10:39:05 PM 34.5650 -102.0108 109° East 415 478 25,000  Level Albuquerque Center
Sat 10:40:06 PM 34.5283 -101.8786 109° East 416 479 25,000  Level Albuquerque Center
Sat 10:41:07 PM 34.4914 -101.7453 109° East 418 481 25,000  Level Albuquerque Center
Sat 10:42:08 PM 34.4542 -101.6094 108° East 423 487 25,000  Level Albuquerque Center
Sat 10:43:09 PM 34.4175 -101.4756 108° East 424 488 25,000  Level Albuquerque Center
Sat 10:44:10 PM 34.3808 -101.3436 109° East 420 483 25,000  Level Albuquerque Center
Sat 10:45:11 PM 34.3433 -101.2103 109° East 419 482 25,000  Level Albuquerque Center
Sat 10:46:12 PM 34.2994 -101.0508 108° East 419 482 25,000  Level Albuquerque Center
Sat 10:47:13 PM 34.2839 -100.9128 98° East 418 481 25,000  Level Albuquerque Center
Sat 10:48:14 PM 34.2592 -100.7706 102° East 428 493 25,000  Level Albuquerque Center
Sat 10:49:30 PM 34.2183 -100.6006 106° East 429 494 25,000  Level Fort Worth Center
Sat 10:50:30 PM 34.1842 -100.4564 106° East 434 499 25,000  Level Fort Worth Center
Sat 10:51:30 PM 34.1522 -100.3122 105° East 441 507 25,000  Level Fort Worth Center
Sat 10:52:30 PM 34.1178 -100.1681 106° East 441 507 25,000  Level Fort Worth Center
Sat 10:53:30 PM 34.0836 -100.0214 106° East 446 513 25,000  Level Fort Worth Center
Sat 10:54:30 PM 34.0469 -99.8725 107° East 446 513 25,000  Level Fort Worth Center
Sat 10:55:30 PM 34.0122 -99.7261 106° East 446 513 25,000  Level Fort Worth Center
Sat 10:56:30 PM 33.9708 -99.5797 109° East 446 513 25,000  Level Fort Worth Center
Sat 10:57:30 PM 33.9275 -99.4336 110° East 446 513 25,000  Level Fort Worth Center
Sat 10:58:30 PM 33.8839 -99.2875 110° East 456 525 25,000  Level Fort Worth Center
Sat 10:59:30 PM 33.8381 -99.1364 110° East 462 532 25,000  Level Fort Worth Center
Sat 11:00:30 PM 33.7900 -98.9731 109° East 468 539 25,000  Level Fort Worth Center
Sat 11:01:30 PM 33.7481 -98.8200 108° East 468 539 25,000  Level Fort Worth Center
Sat 11:02:30 PM 33.7017 -98.6669 110° East 468 539 25,000  Level Fort Worth Center
Sat 11:03:30 PM 33.6550 -98.5164 110° East 468 539 25,000  Level Fort Worth Center
Sat 11:04:30 PM 33.6083 -98.3686 111° Southeast 468 539 25,000 -850 Level Fort Worth Center
Sat 11:05:30 PM 33.5675 -98.2311 110° East 473 544 23,300 -2,250 Descending Fort Worth Center
Sat 11:06:30 PM 33.5161 -98.0761 112° Southeast 469 540 20,500 -2,650 Descending Fort Worth Center
Sat 11:07:30 PM 33.4772 -97.9514 110° East 450 518 18,000 -2,800 Descending Fort Worth Center
Sat 11:08:30 PM 33.4319 -97.8017 110° East 444 511 14,900 -2,350 Descending Fort Worth Center
Sat 11:09:30 PM 33.3944 -97.6922 112° Southeast 408 470 13,300 -1,600 Descending Fort Worth Center
Sat 11:10:30 PM 33.3364 -97.5900 124° Southeast 379 436 11,700 -1,150 Descending Fort Worth Center
Sat 11:11:30 PM 33.2508 -97.4856 134° Southeast 389 448 11,000 -350 Descending Fort Worth Center
Sat 11:12:30 PM 33.1800 -97.4061 137° Southeast 389 448 11,000  Level Fort Worth Center
Sat 11:13:30 PM 33.0942 -97.3069 136° Southeast 394 453 11,000  Level Fort Worth Center
Sat 11:14:30 PM 33.0275 -97.2275 135° Southeast 389 448 11,000 -100 Level Fort Worth Center
Sat 11:15:30 PM 32.9606 -97.1658 142° Southeast 353 406 10,800 -950 Descending Fort Worth Center
Sat 11:16:30 PM 32.8811 -97.1711 183° South 290 334 9,100 -1,850 Descending Fort Worth Center
Sat 11:17:30 PM 32.8081 -97.1711 180° South 276 318 7,100 -2,250 Descending Fort Worth Center
Sat 11:18:30 PM 32.7286 -97.1639 176° South 271 312 4,600 -2,050 Descending Fort Worth Center
Sat 11:19:30 PM 32.7264 -97.0997 92° East 172 198 3,000 -1,600 Descending Fort Worth Center

Login

Don't have an account? Register now (free) for customized features, flight alerts, and more!